createdAt,value
2019-05-26T00:00:16.708Z,99.90
2019-05-26T00:02:45.115Z,99.90
2019-05-26T00:05:13.671Z,99.90
2019-05-26T00:07:42.090Z,99.90
2019-05-26T00:10:10.853Z,99.90
2019-05-26T00:12:39.342Z,99.90
2019-05-26T00:15:08.099Z,99.90
2019-05-26T00:17:36.526Z,99.90
2019-05-26T00:20:08.523Z,99.90
2019-05-26T00:22:37.054Z,99.90
2019-05-26T00:25:07.266Z,99.90
2019-05-26T00:27:35.667Z,99.90
2019-05-26T00:30:06.339Z,99.90
2019-05-26T00:32:34.748Z,99.90
2019-05-26T00:35:04.077Z,99.90
2019-05-26T00:37:47.835Z,99.90
2019-05-26T00:40:03.236Z,99.90
2019-05-26T00:42:31.643Z,99.90
2019-05-26T00:45:00.068Z,99.90
2019-05-26T00:47:28.472Z,99.90
2019-05-26T00:49:56.955Z,99.90
2019-05-26T00:52:25.427Z,99.90
2019-05-26T00:54:53.847Z,99.90
2019-05-26T00:57:22.257Z,99.90
2019-05-26T00:59:50.679Z,99.90
2019-05-26T01:02:19.152Z,99.90
2019-05-26T01:04:47.571Z,99.90
2019-05-26T01:07:15.977Z,99.90
2019-05-26T01:09:44.398Z,99.90
2019-05-26T01:12:12.807Z,99.90
2019-05-26T01:14:41.212Z,99.90
2019-05-26T01:17:09.626Z,99.90
2019-05-26T01:19:38.031Z,99.90
2019-05-26T01:22:06.457Z,99.90
2019-05-26T01:24:34.856Z,99.90
2019-05-26T01:27:03.413Z,99.90
2019-05-26T01:29:31.812Z,99.90
2019-05-26T01:32:00.230Z,99.90
2019-05-26T01:34:28.631Z,99.90
2019-05-26T01:36:57.513Z,99.90
2019-05-26T01:39:26.153Z,99.90
2019-05-26T01:41:54.583Z,99.90
2019-05-26T01:44:22.988Z,99.90
2019-05-26T01:46:51.399Z,99.90
2019-05-26T01:49:19.864Z,99.90
2019-05-26T01:51:48.308Z,99.90
2019-05-26T01:54:16.711Z,99.90
2019-05-26T01:56:45.127Z,99.90
2019-05-26T01:59:13.548Z,99.90
2019-05-26T02:01:41.960Z,99.90
2019-05-26T02:04:10.363Z,99.90
2019-05-26T02:06:38.790Z,99.90
2019-05-26T02:09:07.931Z,99.90
2019-05-26T02:11:36.344Z,99.90
2019-05-26T02:14:05.592Z,99.90
2019-05-26T02:16:34.027Z,99.90
2019-05-26T02:19:02.516Z,99.90
2019-05-26T02:21:30.941Z,99.90
2019-05-26T02:23:59.348Z,99.90
2019-05-26T02:26:27.755Z,99.90
2019-05-26T02:28:56.168Z,99.90
2019-05-26T02:31:24.613Z,99.90
2019-05-26T02:33:53.074Z,99.90
2019-05-26T02:36:21.511Z,99.90
2019-05-26T02:39:02.063Z,99.90
2019-05-26T02:41:20.117Z,99.90
2019-05-26T02:43:48.608Z,99.90
2019-05-26T02:46:17.012Z,99.90
2019-05-26T02:48:45.434Z,99.90
2019-05-26T02:51:13.831Z,99.90
2019-05-26T02:53:42.257Z,99.90
2019-05-26T02:56:11.000Z,99.90
2019-05-26T02:58:39.417Z,99.90
2019-05-26T03:01:07.993Z,99.90
2019-05-26T03:03:36.599Z,99.90
2019-05-26T03:06:05.545Z,99.90
2019-05-26T03:08:35.855Z,99.90
2019-05-26T03:11:04.412Z,99.90
2019-05-26T03:13:35.725Z,99.90
2019-05-26T03:16:05.499Z,99.90
2019-05-26T03:18:36.025Z,99.90
2019-05-26T03:21:04.977Z,99.90
2019-05-26T03:23:33.599Z,99.90
2019-05-26T03:26:02.067Z,99.90
2019-05-26T03:28:30.547Z,99.90
2019-05-26T03:30:58.977Z,99.90
2019-05-26T03:33:27.525Z,99.90
2019-05-26T03:35:56.040Z,99.90
2019-05-26T03:38:24.497Z,99.90
2019-05-26T03:40:52.905Z,99.90
2019-05-26T03:43:21.320Z,99.90
2019-05-26T03:46:10.687Z,99.90
2019-05-26T03:48:39.172Z,99.90
2019-05-26T03:51:07.581Z,99.90
2019-05-26T03:53:36.006Z,99.90
2019-05-26T03:56:04.413Z,99.90
2019-05-26T03:58:32.886Z,99.90
2019-05-26T04:01:01.331Z,99.90
2019-05-26T04:03:29.749Z,99.90
2019-05-26T04:05:58.180Z,99.90
2019-05-26T04:08:26.661Z,99.90
2019-05-26T04:10:55.085Z,99.90
2019-05-26T04:13:23.502Z,99.90
2019-05-26T04:15:51.911Z,99.90
2019-05-26T04:18:20.312Z,99.90
2019-05-26T04:20:48.728Z,99.90
2019-05-26T04:23:17.171Z,99.90
2019-05-26T04:25:45.628Z,99.90
2019-05-26T04:28:14.037Z,99.90
2019-05-26T04:30:42.458Z,99.90
2019-05-26T04:33:10.866Z,99.90
2019-05-26T04:35:39.292Z,99.90
2019-05-26T04:38:07.757Z,99.90
2019-05-26T04:40:36.768Z,99.90
2019-05-26T04:43:05.232Z,99.90
2019-05-26T04:45:33.660Z,99.90
2019-05-26T04:48:02.069Z,99.90
2019-05-26T04:50:30.489Z,99.90
2019-05-26T04:53:06.025Z,99.90
2019-05-26T04:55:29.074Z,99.90
2019-05-26T04:57:57.528Z,99.90
2019-05-26T05:00:26.109Z,99.90
2019-05-26T05:02:54.521Z,99.90
2019-05-26T05:05:22.933Z,99.90
2019-05-26T05:07:51.340Z,99.90
2019-05-26T05:10:19.748Z,99.90
2019-05-26T05:12:48.161Z,99.90
2019-05-26T05:15:16.724Z,99.90
2019-05-26T05:17:45.123Z,99.90
2019-05-26T05:20:13.775Z,99.90
2019-05-26T05:22:42.188Z,99.90
2019-05-26T05:25:15.118Z,99.90
2019-05-26T05:27:40.880Z,99.90
2019-05-26T05:30:09.835Z,99.90
2019-05-26T05:32:38.316Z,99.90
2019-05-26T05:35:08.171Z,99.90
2019-05-26T05:37:36.824Z,99.90
2019-05-26T05:40:08.499Z,99.90
2019-05-26T05:42:36.985Z,99.90
2019-05-26T05:45:09.201Z,99.90
2019-05-26T05:47:37.867Z,99.90
2019-05-26T05:50:11.217Z,99.90
2019-05-26T05:52:39.647Z,99.90
2019-05-26T05:55:08.585Z,99.90
2019-05-26T05:57:37.005Z,99.90
2019-05-26T06:00:07.060Z,99.90
2019-05-26T06:02:35.479Z,99.90
2019-05-26T06:05:06.129Z,99.90
2019-05-26T06:07:34.543Z,99.90
2019-05-26T06:10:04.512Z,99.90
2019-05-26T06:12:32.940Z,99.90
2019-05-26T06:15:01.344Z,99.90
2019-05-26T06:17:29.879Z,99.90
2019-05-26T06:19:58.398Z,99.90
2019-05-26T06:22:26.807Z,99.90
2019-05-26T06:24:55.228Z,99.90
2019-05-26T06:27:23.633Z,99.90
2019-05-26T06:29:58.870Z,99.90
2019-05-26T06:32:22.171Z,99.90
2019-05-26T06:34:50.595Z,99.90
2019-05-26T06:37:18.997Z,99.90
2019-05-26T06:39:47.416Z,99.90
2019-05-26T06:42:15.824Z,99.90
2019-05-26T06:44:52.961Z,99.90
2019-05-26T06:47:14.375Z,99.90
2019-05-26T06:49:42.792Z,99.90
2019-05-26T06:52:11.201Z,99.90
2019-05-26T06:54:39.624Z,99.90
2019-05-26T06:57:08.047Z,99.90
2019-05-26T06:59:36.476Z,99.90
2019-05-26T07:02:05.054Z,99.90
2019-05-26T07:04:33.469Z,99.90
2019-05-26T07:07:01.880Z,99.90
2019-05-26T07:09:30.314Z,99.90
2019-05-26T07:12:00.418Z,99.90
2019-05-26T07:14:28.862Z,99.90
2019-05-26T07:16:57.292Z,99.90
2019-05-26T07:19:25.683Z,99.90
2019-05-26T07:21:54.107Z,99.90
2019-05-26T07:24:22.505Z,99.90
2019-05-26T07:26:50.926Z,99.90
2019-05-26T07:29:19.324Z,99.90
2019-05-26T07:31:47.822Z,99.90
2019-05-26T07:34:16.229Z,99.90
2019-05-26T07:36:44.639Z,99.90
2019-05-26T07:39:13.112Z,99.90
2019-05-26T07:41:41.526Z,99.90
2019-05-26T07:44:10.010Z,99.90
2019-05-26T07:46:38.423Z,99.90
2019-05-26T07:49:06.827Z,99.90
2019-05-26T07:51:35.245Z,99.90
2019-05-26T07:54:03.906Z,99.90
2019-05-26T07:56:32.431Z,99.90
2019-05-26T07:59:00.832Z,99.90
2019-05-26T08:01:35.635Z,99.90
2019-05-26T08:03:59.479Z,99.90
2019-05-26T08:06:27.880Z,99.90
2019-05-26T08:08:56.303Z,99.90
2019-05-26T08:11:24.783Z,99.90
2019-05-26T08:13:53.200Z,99.90
2019-05-26T08:16:21.599Z,99.90
2019-05-26T08:18:50.031Z,99.90
2019-05-26T08:21:18.440Z,99.90
2019-05-26T08:23:46.866Z,99.90
2019-05-26T08:26:15.272Z,99.90
2019-05-26T08:28:43.684Z,99.90
2019-05-26T08:31:13.442Z,99.90
2019-05-26T08:33:41.987Z,99.90
2019-05-26T08:36:10.387Z,99.90
2019-05-26T08:38:38.815Z,99.90
2019-05-26T08:41:07.227Z,99.90
2019-05-26T08:43:35.651Z,99.90
2019-05-26T08:46:04.208Z,99.90
2019-05-26T08:48:32.620Z,99.90
2019-05-26T08:51:01.042Z,99.90
2019-05-26T08:53:29.443Z,99.90
2019-05-26T08:55:57.857Z,99.90
2019-05-26T08:58:29.305Z,99.90
2019-05-26T09:00:56.848Z,99.90
2019-05-26T09:03:25.268Z,99.90
2019-05-26T09:05:53.691Z,99.90
2019-05-26T09:08:22.096Z,99.90
2019-05-26T09:10:50.503Z,99.90
2019-05-26T09:13:18.910Z,99.90
2019-05-26T09:15:47.323Z,99.90
2019-05-26T09:18:15.734Z,99.90
2019-05-26T09:20:44.143Z,99.90
2019-05-26T09:23:12.557Z,99.90
2019-05-26T09:25:40.974Z,99.90
2019-05-26T09:28:09.376Z,99.90
2019-05-26T09:30:37.859Z,99.90
2019-05-26T09:33:06.263Z,99.90
2019-05-26T09:35:34.692Z,99.90
2019-05-26T09:38:03.091Z,99.90
2019-05-26T09:40:31.515Z,99.90
2019-05-26T09:43:13.271Z,99.90
2019-05-26T09:45:30.056Z,99.90
2019-05-26T09:47:58.733Z,99.90
2019-05-26T09:50:27.144Z,99.90
2019-05-26T09:52:55.576Z,99.90
2019-05-26T09:55:23.978Z,99.90
2019-05-26T09:57:52.392Z,99.90
2019-05-26T10:00:21.439Z,99.90
2019-05-26T10:02:49.941Z,99.90
2019-05-26T10:05:18.492Z,99.90
2019-05-26T10:07:46.919Z,99.90
2019-05-26T10:10:15.852Z,99.90
2019-05-26T10:12:44.268Z,99.90
2019-05-26T10:15:13.369Z,99.90
2019-05-26T10:17:41.799Z,99.90
2019-05-26T10:20:10.646Z,99.90
2019-05-26T10:22:39.057Z,99.90
2019-05-26T10:25:07.795Z,99.90
2019-05-26T10:27:36.275Z,99.90
2019-05-26T10:30:13.940Z,99.90
2019-05-26T10:32:42.356Z,99.90
2019-05-26T10:35:50.800Z,99.90
2019-05-26T10:38:19.920Z,99.90
2019-05-26T10:40:48.357Z,99.90
2019-05-26T10:43:16.772Z,99.90
2019-05-26T10:45:45.190Z,99.90
2019-05-26T10:48:18.809Z,99.90
2019-05-26T10:50:51.736Z,99.90
2019-05-26T10:53:30.553Z,99.90
2019-05-26T10:56:01.901Z,99.90
2019-05-26T10:58:30.329Z,99.90
2019-05-26T11:01:02.292Z,99.90
2019-05-26T11:03:30.893Z,99.90
2019-05-26T11:05:59.321Z,99.90
2019-05-26T11:08:27.792Z,99.90
2019-05-26T11:10:56.238Z,99.90
2019-05-26T11:13:24.697Z,99.90
2019-05-26T11:15:53.104Z,99.90
2019-05-26T11:18:21.508Z,99.90
2019-05-26T11:20:49.923Z,99.90
2019-05-26T11:23:18.343Z,99.90
2019-05-26T11:25:46.780Z,99.90
2019-05-26T11:28:15.236Z,99.90
2019-05-26T11:30:43.659Z,99.90
2019-05-26T11:33:12.107Z,99.90
2019-05-26T11:35:41.838Z,99.90
2019-05-26T11:38:10.283Z,99.90
2019-05-26T11:40:38.695Z,99.90
2019-05-26T11:43:16.459Z,99.90
2019-05-26T11:45:37.250Z,99.90
2019-05-26T11:48:05.770Z,99.90
2019-05-26T11:50:34.245Z,99.90
2019-05-26T11:53:02.660Z,99.90
2019-05-26T11:55:31.147Z,99.90
2019-05-26T11:57:59.568Z,99.90
2019-05-26T12:00:27.978Z,99.90
2019-05-26T12:02:56.395Z,99.90
2019-05-26T12:05:24.788Z,99.90
2019-05-26T12:07:53.215Z,99.90
2019-05-26T12:10:21.688Z,99.90
2019-05-26T12:12:50.096Z,99.90
2019-05-26T12:15:18.836Z,99.90
2019-05-26T12:17:47.258Z,99.90
2019-05-26T12:20:15.895Z,99.90
2019-05-26T12:22:44.317Z,99.90
2019-05-26T12:25:12.792Z,99.90
2019-05-26T12:27:41.216Z,99.90
2019-05-26T12:30:10.963Z,99.90
2019-05-26T12:32:39.370Z,98.60
2019-05-26T12:35:09.004Z,99.90
2019-05-26T12:37:37.408Z,98.80
2019-05-26T12:40:09.586Z,99.90
2019-05-26T12:42:38.047Z,99.90
2019-05-26T12:45:09.819Z,99.90
2019-05-26T12:47:38.399Z,99.90
2019-05-26T12:50:08.248Z,99.90
2019-05-26T12:52:36.892Z,99.90
2019-05-26T12:55:09.036Z,99.90
2019-05-26T12:57:36.288Z,99.90
2019-05-26T13:00:11.717Z,99.90
2019-05-26T13:02:40.123Z,99.90
2019-05-26T13:05:09.587Z,99.90
2019-05-26T13:07:38.059Z,99.90
2019-05-26T13:10:09.076Z,99.90
2019-05-26T13:12:37.552Z,99.90
2019-05-26T13:15:10.575Z,98.90
2019-05-26T13:17:38.989Z,98.40
2019-05-26T13:20:08.432Z,99.90
2019-05-26T13:22:37.258Z,99.90
2019-05-26T13:25:07.690Z,98.90
2019-05-26T13:27:36.112Z,99.60
2019-05-26T13:30:24.989Z,99.90
2019-05-26T13:32:53.400Z,99.50
2019-05-26T13:35:21.939Z,99.00
2019-05-26T13:37:50.355Z,99.90
2019-05-26T13:40:19.697Z,98.60
2019-05-26T13:42:48.129Z,99.20
2019-05-26T13:45:22.807Z,95.80
2019-05-26T13:47:46.971Z,98.90
2019-05-26T13:50:16.088Z,99.90
2019-05-26T13:52:44.564Z,96.30
2019-05-26T13:55:13.599Z,99.90
2019-05-26T13:57:42.020Z,98.10
2019-05-26T14:00:18.152Z,94.80
2019-05-26T14:02:47.032Z,99.30
2019-05-26T14:05:15.575Z,99.30
2019-05-26T14:07:43.994Z,97.20
2019-05-26T14:10:12.758Z,99.30
2019-05-26T14:12:41.245Z,99.60
2019-05-26T14:15:10.385Z,99.90
2019-05-26T14:17:39.540Z,95.80
2019-05-26T14:20:10.001Z,97.10
2019-05-26T14:22:38.464Z,97.20
2019-05-26T14:25:08.012Z,95.50
2019-05-26T14:27:36.481Z,96.70
2019-05-26T14:30:07.331Z,97.80
2019-05-26T14:32:35.732Z,97.60
2019-05-26T14:35:06.279Z,96.70
2019-05-26T14:37:34.696Z,96.80
2019-05-26T14:40:04.587Z,96.80
2019-05-26T14:42:32.984Z,97.80
2019-05-26T14:45:03.857Z,99.40
2019-05-26T14:47:31.605Z,96.70
2019-05-26T14:50:00.026Z,98.00
2019-05-26T14:52:28.428Z,95.00
2019-05-26T14:54:56.913Z,94.80
2019-05-26T14:57:25.315Z,95.10
2019-05-26T14:59:53.735Z,96.40
2019-05-26T15:02:22.152Z,96.60
2019-05-26T15:04:50.601Z,98.90
2019-05-26T15:07:19.072Z,97.80
2019-05-26T15:09:47.552Z,95.60
2019-05-26T15:12:15.967Z,96.00
2019-05-26T15:14:44.372Z,96.00
2019-05-26T15:17:12.824Z,97.70
2019-05-26T15:19:41.220Z,99.90
2019-05-26T15:22:09.717Z,99.90
2019-05-26T15:24:38.115Z,98.10
2019-05-26T15:27:06.527Z,99.90
2019-05-26T15:29:34.949Z,96.70
2019-05-26T15:32:03.417Z,98.10
2019-05-26T15:34:31.868Z,96.30
2019-05-26T15:37:00.292Z,97.80
2019-05-26T15:39:28.703Z,97.40
2019-05-26T15:41:57.108Z,97.00
2019-05-26T15:44:25.517Z,96.00
2019-05-26T15:46:53.924Z,97.10
2019-05-26T15:49:22.341Z,93.20
2019-05-26T15:51:50.786Z,91.60
2019-05-26T15:54:19.260Z,83.20
2019-05-26T15:56:47.663Z,70.30
2019-05-26T15:59:16.081Z,67.20
2019-05-26T16:01:46.491Z,64.60
2019-05-26T16:04:14.976Z,60.20
2019-05-26T16:06:43.384Z,56.20
2019-05-26T16:09:11.835Z,52.80
2019-05-26T16:11:43.289Z,52.30
2019-05-26T16:14:10.376Z,53.80
2019-05-26T16:16:41.609Z,50.50
2019-05-26T16:19:08.924Z,46.40
2019-05-26T16:21:37.326Z,47.10
2019-05-26T16:24:05.811Z,47.40
2019-05-26T16:26:34.207Z,44.90
2019-05-26T16:29:02.895Z,45.40
2019-05-26T16:31:31.306Z,43.90
2019-05-26T16:33:59.715Z,43.50
2019-05-26T16:36:28.134Z,41.60
2019-05-26T16:38:56.532Z,41.60
2019-05-26T16:41:24.943Z,42.60
2019-05-26T16:43:53.379Z,41.80
2019-05-26T16:46:21.800Z,40.20
2019-05-26T16:48:50.205Z,40.00
2019-05-26T16:51:18.894Z,40.10
2019-05-26T16:53:47.433Z,41.60
2019-05-26T16:56:15.848Z,40.30
2019-05-26T16:58:44.256Z,41.70
2019-05-26T17:01:12.747Z,39.10
2019-05-26T17:03:41.350Z,40.40
2019-05-26T17:06:09.768Z,40.10
2019-05-26T17:08:38.185Z,41.80
2019-05-26T17:11:06.598Z,40.30
2019-05-26T17:13:35.000Z,41.70
2019-05-26T17:16:03.416Z,40.60
2019-05-26T17:18:31.819Z,40.60
2019-05-26T17:21:00.423Z,41.70
2019-05-26T17:23:28.996Z,39.70
2019-05-26T17:25:57.407Z,39.80
2019-05-26T17:28:25.820Z,41.50
2019-05-26T17:30:54.234Z,40.80
2019-05-26T17:33:22.710Z,41.50
2019-05-26T17:35:51.120Z,42.90
2019-05-26T17:38:19.538Z,43.00
2019-05-26T17:40:47.936Z,43.20
2019-05-26T17:43:16.356Z,43.90
2019-05-26T17:45:46.200Z,44.30
2019-05-26T17:48:14.616Z,45.00
2019-05-26T17:50:43.093Z,45.20
2019-05-26T17:53:11.505Z,44.90
2019-05-26T17:55:39.980Z,45.00
2019-05-26T17:58:08.515Z,45.90
2019-05-26T18:00:37.015Z,45.60
2019-05-26T18:03:05.455Z,46.10
2019-05-26T18:05:33.877Z,46.30
2019-05-26T18:08:02.291Z,46.90
2019-05-26T18:10:30.691Z,46.60
2019-05-26T18:12:59.147Z,46.90
2019-05-26T18:15:27.569Z,47.50
2019-05-26T18:17:56.060Z,49.10
2019-05-26T18:20:24.464Z,51.00
2019-05-26T18:22:53.054Z,53.40
2019-05-26T18:25:21.542Z,55.90
2019-05-26T18:27:49.985Z,57.60
2019-05-26T18:30:18.680Z,59.70
2019-05-26T18:32:47.200Z,62.40
2019-05-26T18:35:15.868Z,64.00
2019-05-26T18:37:44.283Z,66.90
2019-05-26T18:40:13.128Z,67.70
2019-05-26T18:42:41.540Z,70.20
2019-05-26T18:45:10.784Z,74.10
2019-05-26T18:47:39.206Z,77.10
2019-05-26T18:50:08.037Z,84.20
2019-05-26T18:52:39.600Z,92.90
2019-05-26T18:55:08.540Z,99.90
2019-05-26T18:57:36.948Z,99.90
2019-05-26T19:00:06.993Z,99.90
2019-05-26T19:02:35.407Z,99.90
2019-05-26T19:05:05.353Z,99.90
2019-05-26T19:07:33.824Z,99.90
2019-05-26T19:10:02.240Z,99.90
2019-05-26T19:12:30.715Z,99.90
2019-05-26T19:14:59.139Z,99.90
2019-05-26T19:17:27.588Z,99.90
2019-05-26T19:19:56.041Z,99.90
2019-05-26T19:22:24.551Z,99.90
2019-05-26T19:24:53.051Z,99.90
2019-05-26T19:27:21.465Z,99.90
2019-05-26T19:29:49.881Z,99.90
2019-05-26T19:32:18.292Z,99.90
2019-05-26T19:34:46.707Z,99.90
2019-05-26T19:37:15.135Z,99.90
2019-05-26T19:39:43.543Z,99.90
2019-05-26T19:42:11.954Z,99.90
2019-05-26T19:44:40.390Z,99.90
2019-05-26T19:47:08.863Z,99.90
2019-05-26T19:49:37.286Z,99.90
2019-05-26T19:52:06.051Z,99.90
2019-05-26T19:54:34.475Z,99.90
2019-05-26T19:57:02.879Z,99.90
2019-05-26T19:59:31.291Z,99.90
2019-05-26T20:02:16.955Z,99.90
2019-05-26T20:04:29.975Z,99.90
2019-05-26T20:06:58.381Z,99.90
2019-05-26T20:09:26.790Z,99.90
2019-05-26T20:11:55.301Z,99.90
2019-05-26T20:14:24.149Z,99.90
2019-05-26T20:16:52.548Z,99.90
2019-05-26T20:19:20.960Z,99.90
2019-05-26T20:21:49.367Z,99.90
2019-05-26T20:24:17.846Z,99.90
2019-05-26T20:26:46.264Z,99.90
2019-05-26T20:29:14.676Z,99.90
2019-05-26T20:31:43.085Z,99.90
2019-05-26T20:34:11.492Z,99.90
2019-05-26T20:36:39.907Z,99.90
2019-05-26T20:39:09.249Z,99.90
2019-05-26T20:41:38.445Z,99.90
2019-05-26T20:44:06.844Z,99.90
2019-05-26T20:46:35.264Z,99.90
2019-05-26T20:49:03.678Z,99.90
2019-05-26T20:51:32.089Z,99.90
2019-05-26T20:54:00.493Z,99.90
2019-05-26T20:56:28.909Z,99.90
2019-05-26T20:58:57.309Z,99.90
2019-05-26T21:01:25.787Z,99.90
2019-05-26T21:03:54.199Z,99.90
2019-05-26T21:06:22.611Z,99.90
2019-05-26T21:08:57.857Z,99.90
2019-05-26T21:11:26.267Z,99.90
2019-05-26T21:13:54.676Z,99.90
2019-05-26T21:16:23.088Z,99.90
2019-05-26T21:18:51.492Z,99.90
2019-05-26T21:21:19.903Z,99.90
2019-05-26T21:23:48.310Z,99.90
2019-05-26T21:26:16.731Z,99.90
2019-05-26T21:28:45.132Z,99.90
2019-05-26T21:31:13.544Z,99.90
2019-05-26T21:33:41.951Z,99.90
2019-05-26T21:36:10.364Z,99.90
2019-05-26T21:38:38.771Z,99.90
2019-05-26T21:41:26.524Z,99.90
2019-05-26T21:43:54.951Z,99.90
2019-05-26T21:46:23.411Z,99.90
2019-05-26T21:48:51.819Z,99.90
2019-05-26T21:51:20.240Z,99.90
2019-05-26T21:53:48.649Z,99.90
2019-05-26T21:56:17.063Z,99.90
2019-05-26T21:58:45.732Z,99.90
2019-05-26T22:01:14.280Z,99.90
2019-05-26T22:03:42.748Z,99.90
2019-05-26T22:06:11.554Z,99.90
2019-05-26T22:08:39.996Z,99.90
2019-05-26T22:11:08.413Z,99.90
2019-05-26T22:13:36.811Z,99.90
2019-05-26T22:16:05.234Z,99.90
2019-05-26T22:18:33.655Z,99.90
2019-05-26T22:21:02.074Z,99.90
2019-05-26T22:23:30.480Z,99.90
2019-05-26T22:25:58.895Z,99.90
2019-05-26T22:28:27.837Z,99.90
2019-05-26T22:31:15.750Z,99.90
2019-05-26T22:33:44.505Z,99.90
2019-05-26T22:36:12.992Z,99.90
2019-05-26T22:38:41.523Z,99.90
2019-05-26T22:41:10.064Z,99.90
2019-05-26T22:43:38.661Z,99.90
2019-05-26T22:46:07.089Z,99.90
2019-05-26T22:48:35.659Z,99.90
2019-05-26T22:51:04.147Z,99.90
2019-05-26T22:53:32.612Z,99.90
2019-05-26T22:56:01.153Z,99.90
2019-05-26T22:58:29.645Z,99.90
2019-05-26T23:00:58.274Z,99.90
2019-05-26T23:03:26.736Z,99.90
2019-05-26T23:05:55.164Z,99.90
2019-05-26T23:08:23.700Z,99.90
2019-05-26T23:10:52.194Z,99.90
2019-05-26T23:13:20.721Z,99.90
2019-05-26T23:15:49.170Z,99.90
2019-05-26T23:18:17.644Z,99.90
2019-05-26T23:20:46.160Z,99.90
2019-05-26T23:23:14.624Z,99.90
2019-05-26T23:25:43.023Z,99.90
2019-05-26T23:28:11.437Z,99.90
2019-05-26T23:30:39.848Z,99.90
2019-05-26T23:33:08.260Z,99.90
2019-05-26T23:35:36.661Z,99.90
2019-05-26T23:38:05.311Z,99.90
2019-05-26T23:40:33.745Z,99.90
2019-05-26T23:43:02.213Z,99.90
2019-05-26T23:45:30.685Z,99.90
2019-05-26T23:47:59.234Z,99.90
2019-05-26T23:50:27.812Z,99.90
2019-05-26T23:52:56.276Z,99.90
2019-05-26T23:55:24.796Z,99.90
2019-05-26T23:57:53.290Z,99.90
